createdAt,value
2023-09-27T00:00:03.334Z,13.94
2023-09-27T00:01:03.451Z,13.94
2023-09-27T00:02:03.621Z,13.93
2023-09-27T00:03:03.684Z,13.93
2023-09-27T00:04:03.788Z,13.93
2023-09-27T00:05:04.099Z,13.92
2023-09-27T00:06:04.135Z,13.91
2023-09-27T00:07:04.193Z,13.90
2023-09-27T00:08:04.357Z,13.89
2023-09-27T00:09:04.405Z,13.89
2023-09-27T00:10:04.549Z,13.88
2023-09-27T00:11:04.826Z,13.88
2023-09-27T00:12:04.805Z,13.86
2023-09-27T00:13:04.928Z,13.85
2023-09-27T00:14:05.038Z,13.84
2023-09-27T00:15:05.185Z,13.83
2023-09-27T00:16:05.346Z,13.81
2023-09-27T00:17:05.467Z,13.80
2023-09-27T00:18:05.632Z,13.78
2023-09-27T00:19:05.710Z,13.77
2023-09-27T00:20:05.802Z,13.76
2023-09-27T00:21:05.870Z,13.74
2023-09-27T00:22:05.968Z,13.72
2023-09-27T00:23:06.134Z,13.70
2023-09-27T00:24:06.204Z,13.67
2023-09-27T00:25:06.320Z,13.65
2023-09-27T00:26:06.450Z,13.63
2023-09-27T00:27:06.554Z,13.62
2023-09-27T00:28:06.650Z,13.60
2023-09-27T00:29:06.819Z,13.60
2023-09-27T00:30:06.886Z,13.59
2023-09-27T00:31:07.005Z,13.58
2023-09-27T00:32:07.171Z,13.58
2023-09-27T00:33:07.254Z,13.59
2023-09-27T00:34:07.395Z,13.60
2023-09-27T00:35:08.243Z,13.61
2023-09-27T00:36:07.700Z,13.63
2023-09-27T00:37:07.767Z,13.64
2023-09-27T00:38:07.911Z,13.66
2023-09-27T00:39:08.005Z,13.68
2023-09-27T00:40:08.154Z,13.69
2023-09-27T00:41:08.411Z,13.70
2023-09-27T00:42:08.378Z,13.70
2023-09-27T00:43:08.468Z,13.69
2023-09-27T00:44:08.627Z,13.68
2023-09-27T00:45:08.733Z,13.67
2023-09-27T00:46:08.884Z,13.64
2023-09-27T00:47:09.058Z,13.62
2023-09-27T00:48:09.156Z,13.59
2023-09-27T00:49:09.229Z,13.57
2023-09-27T00:50:09.349Z,13.54
2023-09-27T00:51:09.444Z,13.52
2023-09-27T00:52:09.610Z,13.50
2023-09-27T00:53:09.700Z,13.49
2023-09-27T00:54:09.766Z,13.47
2023-09-27T00:55:09.872Z,13.45
2023-09-27T00:56:10.286Z,13.44
2023-09-27T00:57:10.095Z,13.42
2023-09-27T00:58:10.217Z,13.40
2023-09-27T00:59:10.354Z,13.38
2023-09-27T01:00:10.516Z,13.37
2023-09-27T01:01:10.664Z,13.36
2023-09-27T01:02:10.860Z,13.37
2023-09-27T01:03:10.927Z,13.39
2023-09-27T01:04:10.963Z,13.40
2023-09-27T01:05:11.419Z,13.41
2023-09-27T01:06:11.259Z,13.43
2023-09-27T01:07:11.397Z,13.44
2023-09-27T01:08:11.496Z,13.44
2023-09-27T01:09:11.583Z,13.45
2023-09-27T01:10:11.742Z,13.44
2023-09-27T01:11:11.885Z,13.43
2023-09-27T01:12:11.944Z,13.42
2023-09-27T01:13:12.177Z,13.40
2023-09-27T01:14:12.226Z,13.39
2023-09-27T01:15:12.339Z,13.38
2023-09-27T01:16:12.499Z,13.36
2023-09-27T01:17:12.950Z,13.35
2023-09-27T01:18:12.835Z,13.34
2023-09-27T01:19:12.853Z,13.33
2023-09-27T01:20:13.055Z,13.31
2023-09-27T01:21:13.196Z,13.30
2023-09-27T01:22:13.280Z,13.29
2023-09-27T01:23:13.430Z,13.27
2023-09-27T01:24:13.536Z,13.25
2023-09-27T01:25:13.658Z,13.23
2023-09-27T01:26:13.853Z,13.21
2023-09-27T01:27:13.874Z,13.18
2023-09-27T01:28:13.976Z,13.17
2023-09-27T01:29:14.117Z,13.17
2023-09-27T01:30:14.234Z,13.17
2023-09-27T01:31:14.400Z,13.18
2023-09-27T01:32:14.509Z,13.19
2023-09-27T01:33:14.612Z,13.19
2023-09-27T01:34:14.702Z,13.19
2023-09-27T01:35:14.836Z,13.18
2023-09-27T01:36:14.908Z,13.17
2023-09-27T01:37:15.033Z,13.16
2023-09-27T01:38:15.168Z,13.16
2023-09-27T01:39:15.235Z,13.16
2023-09-27T01:40:15.396Z,13.16
2023-09-27T01:41:15.536Z,13.17
2023-09-27T01:42:15.583Z,13.17
2023-09-27T01:43:15.748Z,13.16
2023-09-27T01:44:15.908Z,13.16
2023-09-27T01:45:15.964Z,13.15
2023-09-27T01:46:16.127Z,13.14
2023-09-27T01:47:16.287Z,13.12
2023-09-27T01:48:16.395Z,13.11
2023-09-27T01:49:16.482Z,13.09
2023-09-27T01:50:16.700Z,13.07
2023-09-27T01:51:16.718Z,13.05
2023-09-27T01:52:16.871Z,13.02
2023-09-27T01:53:17.043Z,13.00
2023-09-27T01:54:17.195Z,12.98
2023-09-27T01:55:17.274Z,12.96
2023-09-27T01:56:17.422Z,12.93
2023-09-27T01:57:17.493Z,12.90
2023-09-27T01:58:17.619Z,12.88
2023-09-27T01:59:17.743Z,12.86
2023-09-27T02:00:17.846Z,12.85
2023-09-27T02:01:17.980Z,12.83
2023-09-27T02:02:18.122Z,12.82
2023-09-27T02:03:18.254Z,12.82
2023-09-27T02:04:18.288Z,12.81
2023-09-27T02:05:18.513Z,12.80
2023-09-27T02:06:18.515Z,12.80
2023-09-27T02:07:18.621Z,12.79
2023-09-27T02:08:18.880Z,12.79
2023-09-27T02:09:18.895Z,12.78
2023-09-27T02:10:19.008Z,12.77
2023-09-27T02:11:19.185Z,12.78
2023-09-27T02:12:19.253Z,12.79
2023-09-27T02:13:19.382Z,12.80
2023-09-27T02:14:19.502Z,12.80
2023-09-27T02:15:19.631Z,12.81
2023-09-27T02:16:19.767Z,12.81
2023-09-27T02:17:19.846Z,12.82
2023-09-27T02:18:20.048Z,12.84
2023-09-27T02:19:20.126Z,12.86
2023-09-27T02:20:20.434Z,12.88
2023-09-27T02:21:20.406Z,12.91
2023-09-27T02:22:20.519Z,12.94
2023-09-27T02:23:20.690Z,12.97
2023-09-27T02:24:20.752Z,13.02
2023-09-27T02:25:20.856Z,13.07
2023-09-27T02:26:21.069Z,13.12
2023-09-27T02:27:21.079Z,13.17
2023-09-27T02:28:21.181Z,13.21
2023-09-27T02:29:21.345Z,13.24
2023-09-27T02:30:21.458Z,13.27
2023-09-27T02:31:21.595Z,13.30
2023-09-27T02:32:21.721Z,13.32
2023-09-27T02:33:21.828Z,13.34
2023-09-27T02:34:21.928Z,13.36
2023-09-27T02:35:22.043Z,13.38
2023-09-27T02:36:22.122Z,13.40
2023-09-27T02:37:22.238Z,13.42
2023-09-27T02:38:22.399Z,13.43
2023-09-27T02:39:22.466Z,13.44
2023-09-27T02:40:22.590Z,13.44
2023-09-27T02:41:22.696Z,13.45
2023-09-27T02:42:22.791Z,13.45
2023-09-27T02:43:22.922Z,13.46
2023-09-27T02:44:23.053Z,13.46
2023-09-27T02:45:23.174Z,13.46
2023-09-27T02:46:23.279Z,13.45
2023-09-27T02:47:23.462Z,13.45
2023-09-27T02:48:23.650Z,13.43
2023-09-27T02:49:23.724Z,13.40
2023-09-27T02:50:23.836Z,13.38
2023-09-27T02:51:23.965Z,13.36
2023-09-27T02:52:24.036Z,13.33
2023-09-27T02:53:24.200Z,13.32
2023-09-27T02:54:24.335Z,13.30
2023-09-27T02:55:24.505Z,13.30
2023-09-27T02:56:25.729Z,13.30
2023-09-27T02:57:24.738Z,13.30
2023-09-27T02:58:24.874Z,13.30
2023-09-27T02:59:25.012Z,13.30
2023-09-27T03:00:25.123Z,13.30
2023-09-27T03:01:25.246Z,13.30
2023-09-27T03:02:25.408Z,13.30
2023-09-27T03:03:25.554Z,13.29
2023-09-27T03:04:25.568Z,13.29
2023-09-27T03:05:25.776Z,13.28
2023-09-27T03:06:25.846Z,13.27
2023-09-27T03:07:25.946Z,13.26
2023-09-27T03:08:26.069Z,13.25
2023-09-27T03:09:26.189Z,13.24
2023-09-27T03:10:26.364Z,13.23
2023-09-27T03:11:26.468Z,13.22
2023-09-27T03:12:26.532Z,13.22
2023-09-27T03:13:26.641Z,13.22
2023-09-27T03:14:26.784Z,13.22
2023-09-27T03:15:26.888Z,13.22
2023-09-27T03:16:26.974Z,13.23
2023-09-27T03:17:27.140Z,13.23
2023-09-27T03:18:27.288Z,13.23
2023-09-27T03:19:27.330Z,13.23
2023-09-27T03:20:27.457Z,13.22
2023-09-27T03:21:27.571Z,13.22
2023-09-27T03:22:27.694Z,13.22
2023-09-27T03:23:27.823Z,13.21
2023-09-27T03:24:27.948Z,13.21
2023-09-27T03:25:28.083Z,13.21
2023-09-27T03:26:28.211Z,13.21
2023-09-27T03:27:28.292Z,13.22
2023-09-27T03:28:28.467Z,13.22
2023-09-27T03:29:28.591Z,13.22
2023-09-27T03:30:28.696Z,13.23
2023-09-27T03:31:28.844Z,13.23
2023-09-27T03:32:28.991Z,13.23
2023-09-27T03:33:29.080Z,13.23
2023-09-27T03:34:29.166Z,13.23
2023-09-27T03:35:29.334Z,13.23
2023-09-27T03:36:29.449Z,13.23
2023-09-27T03:37:29.567Z,13.23
2023-09-27T03:38:29.745Z,13.22
2023-09-27T03:39:30.052Z,13.21
2023-09-27T03:40:29.947Z,13.19
2023-09-27T03:41:30.082Z,13.17
2023-09-27T03:42:30.234Z,13.15
2023-09-27T03:43:30.298Z,13.12
2023-09-27T03:44:30.438Z,13.10
2023-09-27T03:45:30.529Z,13.07
2023-09-27T03:46:30.706Z,13.03
2023-09-27T03:47:31.001Z,13.00
2023-09-27T03:48:30.939Z,12.97
2023-09-27T03:49:30.970Z,12.94
2023-09-27T03:50:31.160Z,12.91
2023-09-27T03:51:31.232Z,12.89
2023-09-27T03:52:31.328Z,12.87
2023-09-27T03:53:31.522Z,12.85
2023-09-27T03:54:31.557Z,12.83
2023-09-27T03:55:31.709Z,12.82
2023-09-27T03:56:31.853Z,12.82
2023-09-27T03:57:31.942Z,12.82
2023-09-27T03:58:32.084Z,12.82
2023-09-27T03:59:32.233Z,12.82
2023-09-27T04:00:32.364Z,12.82
2023-09-27T04:01:32.507Z,12.82
2023-09-27T04:02:32.656Z,12.81
2023-09-27T04:03:32.836Z,12.80
2023-09-27T04:04:32.933Z,12.78
2023-09-27T04:05:33.102Z,12.77
2023-09-27T04:06:33.169Z,12.75
2023-09-27T04:07:33.274Z,12.72
2023-09-27T04:08:33.461Z,12.69
2023-09-27T04:09:33.524Z,12.67
2023-09-27T04:10:33.630Z,12.65
2023-09-27T04:11:33.802Z,12.62
2023-09-27T04:12:33.908Z,12.59
2023-09-27T04:13:34.056Z,12.57
2023-09-27T04:14:34.191Z,12.54
2023-09-27T04:15:34.253Z,12.51
2023-09-27T04:16:34.364Z,12.49
2023-09-27T04:17:34.574Z,12.47
2023-09-27T04:18:34.624Z,12.45
2023-09-27T04:19:34.741Z,12.43
2023-09-27T04:20:36.294Z,12.41
2023-09-27T04:21:35.038Z,12.39
2023-09-27T04:22:35.168Z,12.37
2023-09-27T04:23:35.342Z,12.36
2023-09-27T04:24:35.358Z,12.36
2023-09-27T04:25:35.454Z,12.37
2023-09-27T04:26:35.585Z,12.39
2023-09-27T04:27:35.666Z,12.41
2023-09-27T04:28:35.787Z,12.43
2023-09-27T04:29:35.968Z,12.45
2023-09-27T04:30:36.024Z,12.47
2023-09-27T04:31:36.194Z,12.48
2023-09-27T04:32:36.300Z,12.49
2023-09-27T04:33:36.363Z,12.50
2023-09-27T04:34:36.507Z,12.50
2023-09-27T04:35:36.657Z,12.50
2023-09-27T04:36:36.739Z,12.51
2023-09-27T04:37:36.840Z,12.52
2023-09-27T04:38:36.973Z,12.52
2023-09-27T04:39:37.058Z,12.51
2023-09-27T04:40:37.188Z,12.51
2023-09-27T04:41:37.353Z,12.51
2023-09-27T04:42:37.434Z,12.51
2023-09-27T04:43:37.605Z,12.52
2023-09-27T04:44:37.701Z,12.53
2023-09-27T04:45:37.791Z,12.53
2023-09-27T04:46:37.891Z,12.52
2023-09-27T04:47:38.189Z,12.52
2023-09-27T04:48:38.144Z,12.51
2023-09-27T04:49:38.264Z,12.50
2023-09-27T04:50:38.428Z,12.49
2023-09-27T04:51:38.532Z,12.47
2023-09-27T04:52:38.633Z,12.45
2023-09-27T04:53:39.317Z,12.43
2023-09-27T04:54:38.917Z,12.41
2023-09-27T04:55:39.028Z,12.39
2023-09-27T04:56:39.193Z,12.38
2023-09-27T04:57:39.284Z,12.39
2023-09-27T04:58:39.864Z,12.39
2023-09-27T04:59:39.568Z,12.39
2023-09-27T05:00:39.676Z,12.39
2023-09-27T05:01:39.823Z,12.38
2023-09-27T05:02:39.957Z,12.37
2023-09-27T05:03:40.153Z,12.36
2023-09-27T05:04:40.113Z,12.34
2023-09-27T05:05:40.322Z,12.32
2023-09-27T05:06:40.354Z,12.30
2023-09-27T05:07:40.537Z,12.29
2023-09-27T05:08:40.711Z,12.28
2023-09-27T05:09:40.724Z,12.28
2023-09-27T05:10:40.891Z,12.27
2023-09-27T05:11:41.073Z,12.27
2023-09-27T05:12:41.287Z,12.26
2023-09-27T05:13:41.245Z,12.26
2023-09-27T05:14:41.398Z,12.26
2023-09-27T05:15:41.562Z,12.25
2023-09-27T05:16:41.653Z,12.25
2023-09-27T05:17:41.816Z,12.26
2023-09-27T05:18:41.959Z,12.28
2023-09-27T05:19:42.056Z,12.31
2023-09-27T05:20:42.165Z,12.33
2023-09-27T05:21:43.494Z,12.35
2023-09-27T05:22:42.546Z,12.37
2023-09-27T05:23:42.574Z,12.39
2023-09-27T05:24:42.632Z,12.41
2023-09-27T05:25:42.751Z,12.42
2023-09-27T05:26:42.862Z,12.43
2023-09-27T05:27:42.985Z,12.44
2023-09-27T05:28:43.122Z,12.45
2023-09-27T05:29:43.233Z,12.46
2023-09-27T05:30:43.346Z,12.45
2023-09-27T05:31:43.434Z,12.45
2023-09-27T05:32:43.652Z,12.44
2023-09-27T05:33:43.918Z,12.42
2023-09-27T05:34:43.774Z,12.42
2023-09-27T05:35:43.916Z,12.41
2023-09-27T05:36:44.029Z,12.41
2023-09-27T05:37:44.159Z,12.42
2023-09-27T05:38:44.312Z,12.42
2023-09-27T05:39:44.378Z,12.43
2023-09-27T05:40:44.505Z,12.44
2023-09-27T05:41:44.615Z,12.46
2023-09-27T05:42:44.720Z,12.47
2023-09-27T05:43:44.837Z,12.49
2023-09-27T05:44:44.986Z,12.52
2023-09-27T05:45:45.207Z,12.54
2023-09-27T05:46:45.437Z,12.57
2023-09-27T05:47:45.443Z,12.59
2023-09-27T05:48:45.478Z,12.62
2023-09-27T05:49:45.595Z,12.64
2023-09-27T05:50:45.936Z,12.66
2023-09-27T05:51:45.846Z,12.67
2023-09-27T05:52:45.960Z,12.69
2023-09-27T05:53:46.087Z,12.69
2023-09-27T05:54:46.244Z,12.70
2023-09-27T05:55:46.363Z,12.71
2023-09-27T05:56:46.508Z,12.71
2023-09-27T05:57:46.641Z,12.71
2023-09-27T05:58:46.699Z,12.72
2023-09-27T05:59:46.843Z,12.73
2023-09-27T06:00:47.029Z,12.75
2023-09-27T06:01:47.105Z,12.77
2023-09-27T06:02:47.270Z,12.80
2023-09-27T06:03:47.451Z,12.82
2023-09-27T06:04:47.428Z,12.85
2023-09-27T06:05:47.622Z,12.87
2023-09-27T06:06:47.668Z,12.89
2023-09-27T06:07:47.820Z,12.91
2023-09-27T06:08:47.925Z,12.93
2023-09-27T06:09:48.086Z,12.95
2023-09-27T06:10:48.185Z,12.96
2023-09-27T06:11:48.297Z,12.98
2023-09-27T06:12:48.404Z,12.99
2023-09-27T06:13:48.550Z,12.99
2023-09-27T06:14:48.675Z,12.99
2023-09-27T06:15:48.868Z,12.98
2023-09-27T06:16:48.956Z,12.97
2023-09-27T06:17:49.072Z,12.95
2023-09-27T06:18:49.168Z,12.94
2023-09-27T06:19:49.267Z,12.92
2023-09-27T06:20:49.403Z,12.90
2023-09-27T06:21:49.508Z,12.90
2023-09-27T06:22:49.692Z,12.90
2023-09-27T06:23:49.732Z,12.92
2023-09-27T06:24:49.843Z,12.94
2023-09-27T06:25:50.034Z,12.97
2023-09-27T06:26:50.159Z,13.01
2023-09-27T06:27:50.256Z,13.05
2023-09-27T06:28:50.530Z,13.10
2023-09-27T06:29:50.476Z,13.14
2023-09-27T06:30:50.694Z,13.19
2023-09-27T06:31:50.763Z,13.24
2023-09-27T06:32:50.941Z,13.29
2023-09-27T06:33:50.960Z,13.33
2023-09-27T06:34:51.072Z,13.37
2023-09-27T06:35:51.181Z,13.40
2023-09-27T06:36:51.281Z,13.43
2023-09-27T06:37:51.382Z,13.44
2023-09-27T06:38:52.199Z,13.46
2023-09-27T06:39:51.651Z,13.46
2023-09-27T06:40:51.746Z,13.45
2023-09-27T06:41:51.857Z,13.46
2023-09-27T06:42:52.137Z,13.47
2023-09-27T06:43:52.101Z,13.49
2023-09-27T06:44:52.222Z,13.52
2023-09-27T06:45:52.373Z,13.54
2023-09-27T06:46:52.470Z,13.57
2023-09-27T06:47:52.690Z,13.60
2023-09-27T06:48:52.961Z,13.63
2023-09-27T06:49:52.750Z,13.67
2023-09-27T06:50:52.864Z,13.72
2023-09-27T06:51:53.016Z,13.76
2023-09-27T06:52:59.924Z,13.79
2023-09-27T06:53:54.263Z,13.82
2023-09-27T06:54:53.342Z,13.85
2023-09-27T06:55:53.475Z,13.90
2023-09-27T06:56:53.620Z,13.97
2023-09-27T06:57:53.675Z,14.06
2023-09-27T06:58:53.950Z,14.19
2023-09-27T06:59:53.899Z,14.35
2023-09-27T07:00:54.087Z,14.50
2023-09-27T07:01:54.135Z,14.66
2023-09-27T07:02:54.432Z,14.81
2023-09-27T07:03:54.399Z,14.90
2023-09-27T07:04:54.505Z,14.94
2023-09-27T07:05:54.615Z,14.93
2023-09-27T07:06:54.738Z,14.90
2023-09-27T07:07:54.856Z,14.85
2023-09-27T07:08:54.980Z,14.79
2023-09-27T07:09:55.134Z,14.73
2023-09-27T07:10:55.208Z,14.70
2023-09-27T07:11:55.297Z,14.68
2023-09-27T07:12:55.414Z,14.68
2023-09-27T07:13:55.599Z,14.71
2023-09-27T07:14:55.666Z,14.74
2023-09-27T07:15:55.805Z,14.77
2023-09-27T07:17:01.620Z,14.80
2023-09-27T07:17:57.123Z,14.83
2023-09-27T07:18:56.424Z,14.84
2023-09-27T07:19:56.953Z,14.85
2023-09-27T07:20:56.355Z,14.87
2023-09-27T07:21:56.484Z,14.88
2023-09-27T07:22:56.593Z,14.90
2023-09-27T07:23:56.701Z,14.92
2023-09-27T07:24:56.854Z,14.96
2023-09-27T07:25:56.964Z,15.00
2023-09-27T07:26:57.056Z,15.06
2023-09-27T07:27:57.167Z,15.12
2023-09-27T07:28:57.265Z,15.17
2023-09-27T07:29:57.429Z,15.23
2023-09-27T07:30:57.556Z,15.31
2023-09-27T07:31:57.675Z,15.38
2023-09-27T07:32:57.873Z,15.42
2023-09-27T07:33:57.882Z,15.41
2023-09-27T07:34:57.994Z,15.37
2023-09-27T07:35:58.118Z,15.33
2023-09-27T07:36:58.215Z,15.31
2023-09-27T07:37:58.354Z,15.32
2023-09-27T07:38:58.499Z,15.35
2023-09-27T07:39:58.609Z,15.38
2023-09-27T07:40:58.751Z,15.42
2023-09-27T07:41:58.881Z,15.47
2023-09-27T07:42:58.981Z,15.54
2023-09-27T07:43:59.302Z,15.61
2023-09-27T07:44:59.216Z,15.67
2023-09-27T07:45:59.375Z,15.71
2023-09-27T07:46:59.476Z,15.74
2023-09-27T07:47:59.698Z,15.76
2023-09-27T07:48:59.774Z,15.80
2023-09-27T07:49:59.861Z,15.85
2023-09-27T07:50:59.969Z,15.94
2023-09-27T07:52:00.078Z,16.07
2023-09-27T07:53:00.234Z,16.24
2023-09-27T07:54:00.408Z,16.42
2023-09-27T07:55:00.476Z,16.63
2023-09-27T07:56:00.559Z,16.86
2023-09-27T07:57:00.664Z,17.09
2023-09-27T07:58:00.766Z,17.30
2023-09-27T07:59:00.908Z,17.48
2023-09-27T08:00:01.019Z,17.63
2023-09-27T08:01:01.174Z,17.78
2023-09-27T08:02:01.234Z,17.95
2023-09-27T08:03:01.491Z,18.15
2023-09-27T08:04:01.585Z,18.34
2023-09-27T08:05:01.626Z,18.48
2023-09-27T08:06:01.720Z,18.56
2023-09-27T08:07:01.840Z,18.59
2023-09-27T08:08:01.935Z,18.57
2023-09-27T08:09:02.087Z,18.54
2023-09-27T08:10:20.847Z,18.51
2023-09-27T08:11:03.376Z,18.47
2023-09-27T08:12:02.528Z,18.39
2023-09-27T08:13:02.562Z,18.29
2023-09-27T08:14:02.701Z,18.18
2023-09-27T08:15:02.826Z,18.13
2023-09-27T08:16:02.948Z,18.12
2023-09-27T08:17:03.127Z,18.12
2023-09-27T08:18:03.430Z,18.14
2023-09-27T08:19:03.308Z,18.18
2023-09-27T08:20:03.478Z,18.22
2023-09-27T08:21:03.553Z,18.26
2023-09-27T08:22:03.745Z,18.32
2023-09-27T08:23:03.838Z,18.38
2023-09-27T08:24:04.018Z,18.46
2023-09-27T08:25:04.080Z,18.55
2023-09-27T08:26:04.233Z,18.66
2023-09-27T08:27:04.342Z,18.79
2023-09-27T08:28:04.439Z,18.96
2023-09-27T08:29:04.594Z,19.12
2023-09-27T08:30:04.694Z,19.29
2023-09-27T08:31:04.830Z,19.48
2023-09-27T08:32:05.005Z,19.67
2023-09-27T08:33:05.092Z,19.81
2023-09-27T08:34:05.100Z,19.90
2023-09-27T08:35:05.222Z,19.95
2023-09-27T08:36:05.327Z,19.95
2023-09-27T08:37:05.450Z,19.94
2023-09-27T08:38:05.587Z,19.93
2023-09-27T08:39:05.730Z,19.91
2023-09-27T08:40:05.792Z,19.88
2023-09-27T08:41:05.971Z,19.87
2023-09-27T08:42:06.012Z,19.88
2023-09-27T08:43:06.243Z,19.90
2023-09-27T08:44:07.325Z,19.94
2023-09-27T08:45:06.404Z,20.01
2023-09-27T08:46:06.547Z,20.09
2023-09-27T08:47:06.628Z,20.18
2023-09-27T08:48:06.886Z,20.26
2023-09-27T08:49:06.858Z,20.35
2023-09-27T08:50:06.972Z,20.45
2023-09-27T08:51:07.118Z,20.55
2023-09-27T08:52:07.214Z,20.65
2023-09-27T08:53:07.321Z,20.74
2023-09-27T08:54:07.470Z,20.81
2023-09-27T08:55:07.554Z,20.87
2023-09-27T08:56:07.809Z,20.93
2023-09-27T08:57:07.776Z,20.99
2023-09-27T08:58:07.941Z,21.05
2023-09-27T08:59:08.161Z,21.10
2023-09-27T09:00:08.414Z,21.17
2023-09-27T09:01:08.314Z,21.26
2023-09-27T09:02:08.532Z,21.37
2023-09-27T09:03:08.696Z,21.50
2023-09-27T09:04:08.691Z,21.62
2023-09-27T09:05:08.760Z,21.74
2023-09-27T09:06:08.991Z,21.85
2023-09-27T09:07:09.028Z,21.96
2023-09-27T09:08:09.136Z,22.05
2023-09-27T09:09:09.301Z,22.12
2023-09-27T09:10:09.388Z,22.19
2023-09-27T09:11:09.509Z,22.28
2023-09-27T09:12:09.610Z,22.36
2023-09-27T09:13:09.732Z,22.43
2023-09-27T09:14:09.864Z,22.51
2023-09-27T09:15:09.954Z,22.58
2023-09-27T09:16:10.382Z,22.58
2023-09-27T09:17:10.226Z,22.53
2023-09-27T09:18:10.453Z,22.43
2023-09-27T09:19:10.460Z,22.35
2023-09-27T09:20:10.624Z,22.28
2023-09-27T09:21:10.669Z,22.25
2023-09-27T09:22:10.803Z,22.26
2023-09-27T09:23:10.906Z,22.30
2023-09-27T09:24:11.008Z,22.34
2023-09-27T09:25:11.144Z,22.40
2023-09-27T09:26:11.534Z,22.49
2023-09-27T09:27:13.653Z,22.59
2023-09-27T09:28:11.482Z,22.69
2023-09-27T09:29:11.730Z,22.76
2023-09-27T09:30:11.761Z,22.81
2023-09-27T09:31:11.822Z,22.88
2023-09-27T09:32:11.921Z,22.98
2023-09-27T09:33:12.254Z,23.07
2023-09-27T09:34:12.182Z,23.17
2023-09-27T09:35:12.299Z,23.26
2023-09-27T09:36:12.419Z,23.33
2023-09-27T09:37:12.538Z,23.37
2023-09-27T09:38:12.686Z,23.38
2023-09-27T09:39:12.896Z,23.38
2023-09-27T09:40:12.870Z,23.39
2023-09-27T09:41:13.025Z,23.40
2023-09-27T09:42:13.106Z,23.43
2023-09-27T09:43:13.216Z,23.49
2023-09-27T09:44:13.378Z,23.55
2023-09-27T09:45:13.723Z,23.59
2023-09-27T09:46:13.601Z,23.63
2023-09-27T09:47:13.762Z,23.69
2023-09-27T09:48:13.790Z,23.78
2023-09-27T09:49:13.898Z,23.87
2023-09-27T09:50:14.292Z,23.97
2023-09-27T09:51:14.143Z,24.06
2023-09-27T09:52:14.310Z,24.13
2023-09-27T09:53:14.428Z,24.19
2023-09-27T09:54:14.468Z,24.22
2023-09-27T09:55:26.024Z,24.21
2023-09-27T09:57:24.604Z,24.20
2023-09-27T09:58:16.020Z,24.21
2023-09-27T09:59:15.053Z,24.21
2023-09-27T10:00:15.160Z,24.19
2023-09-27T10:01:15.308Z,24.13
2023-09-27T10:02:15.446Z,24.06
2023-09-27T10:03:15.530Z,24.01
2023-09-27T10:04:15.690Z,23.99
2023-09-27T10:05:15.735Z,24.01
2023-09-27T10:06:15.825Z,24.05
2023-09-27T10:07:15.932Z,24.13
2023-09-27T10:08:16.079Z,24.21
2023-09-27T10:09:16.761Z,24.26
2023-09-27T10:10:16.380Z,24.29
2023-09-27T10:11:16.529Z,24.32
2023-09-27T10:12:16.667Z,24.36
2023-09-27T10:13:16.723Z,24.40
2023-09-27T10:14:17.191Z,24.44
2023-09-27T10:15:16.953Z,24.50
2023-09-27T10:16:17.119Z,24.55
2023-09-27T10:17:17.198Z,24.61
2023-09-27T10:18:17.425Z,24.67
2023-09-27T10:19:17.494Z,24.71
2023-09-27T10:20:17.562Z,24.68
2023-09-27T10:21:17.663Z,24.60
2023-09-27T10:22:17.826Z,24.48
2023-09-27T10:23:17.944Z,24.39
2023-09-27T10:24:18.033Z,24.31
2023-09-27T10:25:18.148Z,24.24
2023-09-27T10:26:18.292Z,24.22
2023-09-27T10:27:18.440Z,24.22
2023-09-27T10:28:18.499Z,24.23
2023-09-27T10:29:18.695Z,24.24
2023-09-27T10:30:18.751Z,24.24
2023-09-27T10:31:19.115Z,24.24
2023-09-27T10:32:19.079Z,24.21
2023-09-27T10:33:19.258Z,24.12
2023-09-27T10:34:19.245Z,24.02
2023-09-27T10:35:19.381Z,23.92
2023-09-27T10:36:19.469Z,23.86
2023-09-27T10:37:20.022Z,23.86
2023-09-27T10:38:19.731Z,23.90
2023-09-27T10:39:19.856Z,23.98
2023-09-27T10:40:19.976Z,24.07
2023-09-27T10:41:20.145Z,24.17
2023-09-27T10:42:20.295Z,24.26
2023-09-27T10:43:21.669Z,24.33
2023-09-27T10:44:20.535Z,24.38
2023-09-27T10:45:20.656Z,24.42
2023-09-27T10:46:20.818Z,24.45
2023-09-27T10:47:20.944Z,24.47
2023-09-27T10:48:21.019Z,24.46
2023-09-27T10:49:21.117Z,24.43
2023-09-27T10:50:21.251Z,24.41
2023-09-27T10:51:21.330Z,24.40
2023-09-27T10:52:21.505Z,24.39
2023-09-27T10:53:21.595Z,24.38
2023-09-27T10:54:21.689Z,24.38
2023-09-27T10:55:21.826Z,24.38
2023-09-27T10:56:21.943Z,24.40
2023-09-27T10:57:22.268Z,24.44
2023-09-27T10:58:22.146Z,24.48
2023-09-27T10:59:22.282Z,24.49
2023-09-27T11:00:22.388Z,24.49
2023-09-27T11:01:22.563Z,24.50
2023-09-27T11:02:22.647Z,24.53
2023-09-27T11:03:22.786Z,24.57
2023-09-27T11:04:22.880Z,24.61
2023-09-27T11:05:23.005Z,24.67
2023-09-27T11:06:23.102Z,24.74
2023-09-27T11:07:23.208Z,24.79
2023-09-27T11:08:23.374Z,24.82
2023-09-27T11:09:23.475Z,24.85
2023-09-27T11:10:23.602Z,24.86
2023-09-27T11:11:23.735Z,24.86
2023-09-27T11:12:23.819Z,24.88
2023-09-27T11:13:23.962Z,24.93
2023-09-27T11:14:24.100Z,24.99
2023-09-27T11:15:24.219Z,25.07
2023-09-27T11:16:24.313Z,25.16
2023-09-27T11:17:24.582Z,25.25
2023-09-27T11:18:24.611Z,25.33
2023-09-27T11:19:24.693Z,25.39
2023-09-27T11:20:25.935Z,25.44
2023-09-27T11:21:24.956Z,25.48
2023-09-27T11:22:25.067Z,25.52
2023-09-27T11:23:25.336Z,25.55
2023-09-27T11:24:25.363Z,25.57
2023-09-27T11:25:25.389Z,25.58
2023-09-27T11:26:25.590Z,25.57
2023-09-27T11:27:25.696Z,25.56
2023-09-27T11:28:25.771Z,25.56
2023-09-27T11:29:25.919Z,25.60
2023-09-27T11:30:25.973Z,25.65
2023-09-27T11:31:26.127Z,25.70
2023-09-27T11:32:26.260Z,25.68
2023-09-27T11:33:26.367Z,25.63
2023-09-27T11:34:26.512Z,25.60
2023-09-27T11:35:26.635Z,25.59
2023-09-27T11:36:26.749Z,25.59
2023-09-27T11:37:26.880Z,25.56
2023-09-27T11:38:27.065Z,25.54
2023-09-27T11:39:27.099Z,25.53
2023-09-27T11:40:27.220Z,25.56
2023-09-27T11:41:27.409Z,25.59
2023-09-27T11:42:27.444Z,25.63
2023-09-27T11:43:27.548Z,25.70
2023-09-27T11:44:27.680Z,25.79
2023-09-27T11:45:27.776Z,25.87
2023-09-27T11:46:27.899Z,25.94
2023-09-27T11:47:28.096Z,26.00
2023-09-27T11:48:28.200Z,26.07
2023-09-27T11:49:28.245Z,26.11
2023-09-27T11:50:28.366Z,26.09
2023-09-27T11:51:28.481Z,26.03
2023-09-27T11:52:28.578Z,26.03
2023-09-27T11:53:28.773Z,26.08
2023-09-27T11:54:28.820Z,26.15
2023-09-27T11:55:28.950Z,26.22
2023-09-27T11:56:29.052Z,26.25
2023-09-27T11:57:29.134Z,26.26
2023-09-27T11:58:29.276Z,26.21
2023-09-27T11:59:29.407Z,26.11
2023-09-27T12:00:29.500Z,26.03
2023-09-27T12:01:29.659Z,25.98
2023-09-27T12:02:33.006Z,25.96
2023-09-27T12:03:31.014Z,25.91
2023-09-27T12:04:30.176Z,25.88
2023-09-27T12:05:30.436Z,25.92
2023-09-27T12:06:30.413Z,25.99
2023-09-27T12:07:30.458Z,26.07
2023-09-27T12:08:30.628Z,26.14
2023-09-27T12:09:30.699Z,26.22
2023-09-27T12:10:30.824Z,26.32
2023-09-27T12:11:30.966Z,26.44
2023-09-27T12:12:31.049Z,26.56
2023-09-27T12:13:31.186Z,26.66
2023-09-27T12:14:31.400Z,26.74
2023-09-27T12:15:31.395Z,26.82
2023-09-27T12:16:31.522Z,26.90
2023-09-27T12:17:31.787Z,26.98
2023-09-27T12:18:31.849Z,27.06
2023-09-27T12:19:31.968Z,27.16
2023-09-27T12:20:40.551Z,27.27
2023-09-27T12:21:33.248Z,27.36
2023-09-27T12:22:32.287Z,27.42
2023-09-27T12:23:32.423Z,27.45
2023-09-27T12:24:32.497Z,27.43
2023-09-27T12:25:32.637Z,27.31
2023-09-27T12:26:32.791Z,27.13
2023-09-27T12:27:32.865Z,26.97
2023-09-27T12:28:32.994Z,26.88
2023-09-27T12:29:33.170Z,26.84
2023-09-27T12:30:33.292Z,26.79
2023-09-27T12:31:33.448Z,26.78
2023-09-27T12:32:33.627Z,26.81
2023-09-27T12:33:33.676Z,26.87
2023-09-27T12:34:33.761Z,26.93
2023-09-27T12:35:33.945Z,27.01
2023-09-27T12:36:33.965Z,27.09
2023-09-27T12:37:34.103Z,27.16
2023-09-27T12:38:34.403Z,27.19
2023-09-27T12:39:34.329Z,27.19
2023-09-27T12:40:34.466Z,27.22
2023-09-27T12:41:34.658Z,27.26
2023-09-27T12:42:34.706Z,27.31
2023-09-27T12:43:34.863Z,27.35
2023-09-27T12:44:34.983Z,27.38
2023-09-27T12:45:35.038Z,27.39
2023-09-27T12:46:35.167Z,27.41
2023-09-27T12:47:35.311Z,27.43
2023-09-27T12:48:35.575Z,27.43
2023-09-27T12:49:35.510Z,27.41
2023-09-27T12:50:35.688Z,27.39
2023-09-27T12:51:47.013Z,27.35
2023-09-27T12:52:36.871Z,27.29
2023-09-27T12:53:36.024Z,27.18
2023-09-27T12:54:36.091Z,27.00